KPPF/PPF METAR and TAF weather

Enter ICAO airport designator
Station Type Date Time Source
KPPF METAR 2022/06/29 00:52 UTC NOAA

KPPF 290052Z AUTO 00000KT 10SM CLR 28/18 A3015 RMK AO2 SLP200 T02780183


Station Type Date Time Source
KPPF Decoded METAR 2022/06/29 00:52 UTC NOAA

PARSONS TRI-CITY AIRPORT, KS, United States (KPPF) 37-20N 95-30W 274M
Jun 28, 2022 - 08:52 PM EDT / 2022.06.29 0052 UTC
Wind: Calm:0
Visibility: 10 mile(s):0
Sky conditions: clear
Temperature: 82.0 F (27.8 C)
Dew Point: 64.9 F (18.3 C)
Relative Humidity: 56%
Pressure (altimeter): 30.15 in. Hg (1020 hPa)
ob: KPPF 290052Z AUTO 00000KT 10SM CLR 28/18 A3015 RMK AO2 SLP200 T02780183
cycle: 1

Station Type Date Time Source
KPPF TAF UTC NOAA

Error!

Example: see airport list